Time;durP1;ratioP1;P1;durP2;ratioP2;P2;SDS_P1;SDS_P2;PMS_P1;PMS_P2;Temp;Humidity;BMP_temperature;BMP_pressure;BME280_temperature;BME280_humidity;BME280_pressure;Samples;Min_cycle;Max_cycle;Signal;HPM_P1;HPM_P2
2023/08/23 00:01:46;;;;;;;4.53;3.03;;;;;;;20.54;62.37;101944.31;4995338;28;20137;-64
2023/08/23 00:04:11;;;;;;;6.47;3.70;;;;;;;20.48;62.45;101945.47;5010364;28;20045;-65
2023/08/23 00:06:37;;;;;;;6.05;2.92;;;;;;;20.46;62.47;101936.44;5012012;28;20053;-65
2023/08/23 00:09:04;;;;;;;6.68;3.08;;;;;;;20.42;62.41;101937.31;5012427;28;20026;-65
2023/08/23 00:11:29;;;;;;;5.57;3.28;;;;;;;20.38;62.61;101933.41;5012930;28;20087;-65
2023/08/23 00:13:55;;;;;;;5.60;3.13;;;;;;;20.34;62.41;101931.16;5012489;28;20097;-65
2023/08/23 00:16:20;;;;;;;6.35;3.30;;;;;;;20.35;62.71;101934.81;5002004;28;20469;-65
2023/08/23 00:18:45;;;;;;;5.50;3.28;;;;;;;20.30;62.72;101927.25;5006944;28;20035;-65
2023/08/23 00:21:10;;;;;;;3.47;2.70;;;;;;;20.32;62.71;101932.63;5011959;28;20030;-65
2023/08/23 00:23:37;;;;;;;3.90;3.00;;;;;;;20.33;62.35;101934.28;5012594;28;20511;-65
2023/08/23 00:26:02;;;;;;;3.92;2.80;;;;;;;20.33;62.61;101932.31;5012195;28;20401;-64
2023/08/23 00:28:28;;;;;;;4.72;2.50;;;;;;;20.37;62.37;101932.56;5011783;28;20018;-64
2023/08/23 00:30:54;;;;;;;4.90;3.05;;;;;;;20.30;62.46;101934.88;5011637;28;20116;-65
2023/08/23 00:33:21;;;;;;;2.80;2.38;;;;;;;20.34;62.34;101925.53;5012505;28;20479;-65
2023/08/23 00:35:47;;;;;;;3.45;3.08;;;;;;;20.18;62.54;101918.31;5000539;28;20103;-65
2023/08/23 00:38:13;;;;;;;4.40;2.90;;;;;;;20.21;62.43;101923.38;5012832;28;20072;-65
2023/08/23 00:40:38;;;;;;;4.05;2.95;;;;;;;20.11;62.67;101917.78;5009468;28;20049;-65
2023/08/23 00:43:06;;;;;;;4.55;3.42;;;;;;;20.08;62.99;101909.91;4995403;28;20034;-65
2023/08/23 00:45:34;;;;;;;3.13;2.83;;;;;;;20.16;62.43;101906.50;5006402;28;20381;-65
2023/08/23 00:48:00;;;;;;;5.35;3.20;;;;;;;20.13;62.75;101911.88;5011290;28;20092;-65
2023/08/23 00:50:25;;;;;;;3.85;2.88;;;;;;;20.20;62.66;101906.72;5009693;28;20042;-64
2023/08/23 00:52:51;;;;;;;4.82;3.53;;;;;;;20.01;62.97;101906.59;5009320;28;20529;-65
2023/08/23 00:55:16;;;;;;;4.72;3.10;;;;;;;20.04;62.65;101911.63;5010659;28;20512;-65
2023/08/23 00:57:42;;;;;;;4.65;2.90;;;;;;;20.06;62.69;101912.19;5006842;28;20025;-65
2023/08/23 01:00:08;;;;;;;3.55;2.75;;;;;;;20.05;62.56;101897.25;5004745;28;20029;-65
2023/08/23 01:02:35;;;;;;;5.50;3.40;;;;;;;20.09;62.61;101906.81;5010005;28;20042;-64
2023/08/23 01:05:00;;;;;;;5.45;3.50;;;;;;;20.01;62.55;101898.16;5010956;28;20440;-65
2023/08/23 01:08:04;;;;;;;5.90;3.75;;;;;;;20.07;62.44;101899.78;5011123;28;20110;-65
2023/08/23 01:10:37;;;;;;;6.07;3.55;;;;;;;20.01;62.54;101912.25;4982496;28;20516;-65
2023/08/23 01:13:15;;;;;;;4.00;3.25;;;;;;;19.97;62.64;101903.53;5010287;28;20032;-65
2023/08/23 01:15:42;;;;;;;5.28;3.33;;;;;;;19.85;62.73;101912.31;5001617;28;20034;-65
2023/08/23 01:18:09;;;;;;;4.43;3.50;;;;;;;19.80;62.94;101912.31;4991698;28;20023;-65
2023/08/23 01:20:35;;;;;;;6.55;3.58;;;;;;;19.84;63.04;101912.59;4992543;28;20116;-65
2023/08/23 01:23:16;;;;;;;3.83;3.42;;;;;;;19.86;62.60;101904.72;5010912;28;20875;-65
2023/08/23 01:25:48;;;;;;;3.28;2.90;;;;;;;19.89;62.80;101906.94;5002654;28;20121;-65
2023/08/23 01:28:14;;;;;;;4.10;3.05;;;;;;;19.83;62.59;101913.72;5011853;28;20359;-64
2023/08/23 01:30:40;;;;;;;6.68;3.70;;;;;;;19.71;63.26;101910.41;5011602;28;20108;-65
2023/08/23 01:33:08;;;;;;;4.50;3.17;;;;;;;19.67;63.26;101914.94;5011211;28;20516;-65
2023/08/23 01:36:06;;;;;;;6.63;3.38;;;;;;;19.57;63.47;101910.16;5010478;28;20026;-65
2023/08/23 01:38:33;;;;;;;4.47;3.17;;;;;;;19.61;63.27;101908.47;5014002;28;20045;-65
2023/08/23 01:40:59;;;;;;;3.72;2.40;;;;;;;19.70;63.00;101908.75;5011785;28;20105;-64
2023/08/23 01:43:24;;;;;;;3.63;3.03;;;;;;;19.64;63.03;101912.69;5015707;28;20124;-64
2023/08/23 01:45:50;;;;;;;4.82;3.00;;;;;;;19.60;62.93;101901.97;5014125;28;20022;-65
2023/08/23 01:48:15;;;;;;;5.78;3.03;;;;;;;19.65;62.65;101884.25;5015603;28;20628;-65
2023/08/23 01:50:41;;;;;;;3.40;3.08;;;;;;;19.65;62.92;101889.03;5015563;28;20034;-65
2023/08/23 01:53:06;;;;;;;4.35;3.08;;;;;;;19.67;62.76;101898.03;5014510;28;20026;-65
2023/08/23 01:55:32;;;;;;;4.70;3.30;;;;;;;19.60;62.83;101899.16;5013535;28;20113;-65
2023/08/23 01:57:57;;;;;;;4.88;3.35;;;;;;;19.59;63.03;101899.47;5009531;28;20026;-65
2023/08/23 02:00:23;;;;;;;4.60;2.63;;;;;;;19.62;62.83;101901.72;5014611;28;20026;-64
2023/08/23 02:02:48;;;;;;;3.97;2.92;;;;;;;19.64;63.10;101898.63;5015208;28;20473;-64
2023/08/23 02:05:14;;;;;;;3.47;2.83;;;;;;;19.58;62.85;101901.44;5013625;28;20041;-64
2023/08/23 02:07:39;;;;;;;4.35;2.97;;;;;;;19.59;62.69;101896.63;5014401;28;20028;-65
2023/08/23 02:10:05;;;;;;;4.03;2.80;;;;;;;19.60;62.47;101893.53;5014669;28;20032;-64
2023/08/23 02:12:30;;;;;;;6.38;3.55;;;;;;;19.48;62.46;101897.81;5013756;28;20034;-65
2023/08/23 02:14:55;;;;;;;3.58;3.22;;;;;;;19.30;62.71;101894.50;5008519;28;20117;-65
2023/08/23 02:17:20;;;;;;;4.03;2.80;;;;;;;19.39;62.84;101897.56;5013083;28;20034;-64
2023/08/23 02:19:46;;;;;;;3.53;3.10;;;;;;;19.36;62.53;101889.69;5012087;28;20188;-64
2023/08/23 02:22:11;;;;;;;3.53;2.70;;;;;;;19.50;62.54;101904.00;5011643;28;20104;-65
2023/08/23 02:24:36;;;;;;;3.45;3.10;;;;;;;19.26;62.35;101893.41;5012118;28;20026;-65
2023/08/23 02:27:02;;;;;;;3.55;2.53;;;;;;;19.45;62.37;101899.22;5014092;28;20393;-64
2023/08/23 02:29:27;;;;;;;4.30;2.63;;;;;;;19.40;62.42;101899.25;5008729;28;20046;-65
2023/08/23 02:31:52;;;;;;;5.13;2.88;;;;;;;19.36;62.12;101890.53;5012413;28;20041;-64
2023/08/23 02:34:18;;;;;;;6.13;3.08;;;;;;;19.30;62.31;101888.88;5013753;28;20034;-65
2023/08/23 02:36:43;;;;;;;3.33;2.67;;;;;;;19.32;62.36;101891.41;5012929;28;20088;-65
2023/08/23 02:39:09;;;;;;;3.95;3.42;;;;;;;19.33;62.28;101895.88;5013831;28;20034;-64
2023/08/23 02:41:34;;;;;;;3.33;3.00;;;;;;;19.30;62.03;101897.31;5012422;28;20096;-65
2023/08/23 02:43:59;;;;;;;3.78;3.10;;;;;;;19.25;62.06;101894.50;5011332;28;20045;-66
2023/08/23 02:46:25;;;;;;;3.88;3.00;;;;;;;19.12;62.40;101892.31;5009615;28;20034;-65
2023/08/23 02:48:50;;;;;;;4.20;2.92;;;;;;;19.01;62.29;101890.63;4994529;28;20041;-64
2023/08/23 02:51:15;;;;;;;2.80;2.40;;;;;;;19.14;62.49;101895.69;5007034;28;20025;-65
2023/08/23 02:53:41;;;;;;;2.83;2.50;;;;;;;19.17;62.54;101897.91;5012645;28;20103;-64
2023/08/23 02:56:06;;;;;;;6.07;3.13;;;;;;;19.16;62.36;101889.75;5012769;28;20030;-64
2023/08/23 02:58:31;;;;;;;5.15;2.75;;;;;;;19.22;62.25;101888.63;5012224;28;20030;-65
2023/08/23 03:00:56;;;;;;;5.40;3.03;;;;;;;19.12;61.89;101881.88;5011297;28;20030;-65
2023/08/23 03:03:22;;;;;;;3.97;2.80;;;;;;;19.21;62.04;101873.69;5007571;28;20041;-64
2023/08/23 03:05:55;;;;;;;5.30;3.03;;;;;;;19.20;62.20;101874.00;5013924;28;20037;-64
2023/08/23 03:08:21;;;;;;;3.67;3.00;;;;;;;19.12;61.65;101878.22;5010713;28;20029;-65
2023/08/23 03:10:47;;;;;;;4.68;3.05;;;;;;;19.02;61.77;101873.50;5010977;28;20037;-64
2023/08/23 03:13:12;;;;;;;3.83;2.60;;;;;;;19.07;62.22;101870.66;5011998;28;20031;-64
2023/08/23 03:15:37;;;;;;;3.33;2.63;;;;;;;19.14;62.08;101873.19;5012421;28;20488;-65
2023/08/23 03:18:03;;;;;;;4.50;2.65;;;;;;;19.14;61.85;101876.00;5009294;28;20136;-64
2023/08/23 03:20:28;;;;;;;5.32;3.30;;;;;;;19.08;61.24;101877.13;5007524;28;20069;-65
2023/08/23 03:22:53;;;;;;;4.93;3.45;;;;;;;18.97;61.49;101875.47;5010646;28;20103;-64
2023/08/23 03:25:19;;;;;;;3.97;2.85;;;;;;;18.95;61.64;101869.28;5010996;28;20422;-65
2023/08/23 03:27:44;;;;;;;4.18;2.92;;;;;;;18.94;61.90;101864.75;5012089;28;20037;-65
2023/08/23 03:30:10;;;;;;;3.33;2.70;;;;;;;19.00;62.19;101864.47;5013614;28;20054;-65
2023/08/23 03:32:35;;;;;;;3.50;2.80;;;;;;;19.04;61.75;101867.56;5012981;28;20034;-64
2023/08/23 03:35:00;;;;;;;3.08;2.80;;;;;;;19.01;61.44;101874.59;5013594;28;20477;-65
2023/08/23 03:37:26;;;;;;;7.22;3.50;;;;;;;18.98;61.82;101871.50;5006745;28;20382;-64
2023/08/23 03:39:51;;;;;;;3.10;2.55;;;;;;;19.02;61.80;101872.63;5013014;28;20112;-64
2023/08/23 03:42:16;;;;;;;3.03;2.50;;;;;;;19.03;61.54;101880.78;5013444;28;20029;-65
2023/08/23 03:44:42;;;;;;;5.90;3.17;;;;;;;19.02;61.74;101875.44;5013530;28;20052;-65
2023/08/23 03:47:07;;;;;;;4.22;2.90;;;;;;;18.98;61.74;101871.50;5011389;28;20401;-64
2023/08/23 03:49:33;;;;;;;2.60;2.30;;;;;;;19.02;61.80;101867.00;5012953;28;20030;-65
2023/08/23 03:51:58;;;;;;;4.60;2.67;;;;;;;19.03;61.42;101868.69;5010998;28;20036;-64
2023/08/23 03:54:24;;;;;;;4.13;3.17;;;;;;;19.02;61.39;101867.88;5008860;28;20042;-64
2023/08/23 03:56:49;;;;;;;5.45;3.13;;;;;;;19.00;61.70;101870.09;5012509;28;20040;-64
2023/08/23 03:59:14;;;;;;;5.18;2.90;;;;;;;18.88;61.79;101872.38;5012277;28;20041;-64
2023/08/23 04:01:40;;;;;;;6.38;2.92;;;;;;;18.77;62.11;101874.38;5012438;28;20046;-64
2023/08/23 04:04:05;;;;;;;5.82;2.63;;;;;;;18.85;62.41;101870.97;5013061;28;20062;-65
2023/08/23 04:06:30;;;;;;;9.43;3.35;;;;;;;18.81;62.65;101875.47;5010790;28;20026;-64
2023/08/23 04:08:56;;;;;;;5.97;3.30;;;;;;;18.78;62.54;101873.22;5009980;28;20041;-64
2023/08/23 04:11:21;;;;;;;6.70;2.78;;;;;;;18.79;62.65;101872.13;5011982;28;20037;-65
2023/08/23 04:13:46;;;;;;;5.53;2.92;;;;;;;18.84;62.57;101874.91;5012228;28;20465;-64
2023/08/23 04:16:12;;;;;;;4.32;2.60;;;;;;;18.87;62.46;101880.00;5012136;28;20106;-65
2023/08/23 04:18:37;;;;;;;3.67;2.90;;;;;;;18.78;62.52;101884.47;5012807;28;20026;-64
2023/08/23 04:21:02;;;;;;;5.97;2.88;;;;;;;18.81;62.23;101877.47;5012079;28;20014;-64
2023/08/23 04:23:28;;;;;;;4.70;3.42;;;;;;;18.71;62.37;101881.13;5012556;28;20515;-64
2023/08/23 04:25:53;;;;;;;4.43;2.90;;;;;;;18.73;62.50;101884.50;5003830;28;20035;-65
2023/08/23 04:28:19;;;;;;;3.13;2.65;;;;;;;18.65;62.55;101885.88;5010023;28;20030;-63
2023/08/23 04:30:44;;;;;;;4.95;2.80;;;;;;;18.76;62.76;101885.91;5012720;28;20849;-65
2023/08/23 04:33:10;;;;;;;5.50;2.88;;;;;;;18.79;62.55;101885.34;5012576;28;20112;-65
2023/08/23 04:35:36;;;;;;;5.75;3.03;;;;;;;18.72;62.25;101888.44;5011800;28;20032;-64
2023/08/23 04:38:01;;;;;;;2.83;2.47;;;;;;;18.79;62.27;101886.19;5010797;28;20034;-65
2023/08/23 04:40:26;;;;;;;3.25;2.45;;;;;;;18.85;62.45;101887.84;5011758;28;20036;-65
2023/08/23 04:42:51;;;;;;;4.65;2.85;;;;;;;18.83;62.55;101883.66;5006929;28;20034;-65
2023/08/23 04:45:17;;;;;;;3.30;2.60;;;;;;;18.82;62.90;101880.00;5002458;28;20029;-65
2023/08/23 04:47:42;;;;;;;5.70;3.00;;;;;;;18.74;62.97;101890.97;5009808;28;20112;-65
2023/08/23 04:50:08;;;;;;;4.60;2.67;;;;;;;18.65;63.07;101896.28;5010645;28;20109;-65
2023/08/23 04:52:34;;;;;;;3.28;2.90;;;;;;;18.61;63.28;101889.53;5010544;28;20030;-65
2023/08/23 04:54:59;;;;;;;3.00;2.45;;;;;;;18.70;63.43;101887.00;5010891;28;20037;-65
2023/08/23 04:57:25;;;;;;;3.40;3.03;;;;;;;18.71;63.34;101886.75;5011496;28;20049;-65
2023/08/23 04:59:51;;;;;;;5.18;2.67;;;;;;;18.62;63.48;101888.41;5008431;28;20022;-65
2023/08/23 05:02:16;;;;;;;4.45;2.78;;;;;;;18.67;63.86;101888.44;5006859;28;20461;-65
2023/08/23 05:04:41;;;;;;;4.85;2.72;;;;;;;18.65;63.63;101885.03;5011322;28;20057;-64
2023/08/23 05:07:06;;;;;;;5.68;2.75;;;;;;;18.66;63.86;101889.53;5012071;28;20022;-64
2023/08/23 05:09:32;;;;;;;3.97;2.58;;;;;;;18.65;63.77;101885.03;5011774;28;20117;-65
2023/08/23 05:11:57;;;;;;;5.53;2.67;;;;;;;18.64;64.03;101892.63;5011000;28;20505;-64
2023/08/23 05:14:23;;;;;;;3.00;2.42;;;;;;;18.72;64.15;101885.63;5011212;28;20030;-64
2023/08/23 05:16:48;;;;;;;3.17;2.63;;;;;;;18.80;64.03;101875.78;5011414;28;20018;-65
2023/08/23 05:19:13;;;;;;;9.18;3.30;;;;;;;18.71;64.34;101872.69;5008544;28;20508;-65
2023/08/23 05:21:39;;;;;;;4.43;3.30;;;;;;;18.77;64.45;101868.75;5010347;28;20030;-65
2023/08/23 05:24:04;;;;;;;3.83;2.50;;;;;;;18.79;64.53;101865.66;5010461;28;20034;-64
2023/08/23 05:26:30;;;;;;;3.25;2.88;;;;;;;18.81;64.29;101869.84;5011871;28;20109;-65
2023/08/23 05:28:55;;;;;;;6.50;3.03;;;;;;;18.85;64.32;101870.13;5011501;28;20405;-64
2023/08/23 05:31:20;;;;;;;3.97;2.45;;;;;;;18.91;64.15;101870.97;5009952;28;20114;-65
2023/08/23 05:33:45;;;;;;;5.43;2.17;;;;;;;18.96;64.19;101877.44;5009834;28;20026;-65
2023/08/23 05:36:11;;;;;;;5.90;2.97;;;;;;;18.96;64.13;101876.59;4999159;28;20025;-64
2023/08/23 05:38:36;;;;;;;6.32;3.97;;;;;;;18.92;64.32;101878.28;5009764;28;20030;-65
2023/08/23 05:41:02;;;;;;;5.45;3.65;;;;;;;18.94;64.45;101881.66;5011938;28;20017;-65
2023/08/23 05:43:27;;;;;;;5.15;3.30;;;;;;;18.94;64.46;101888.09;5011467;28;20092;-65
2023/08/23 05:45:54;;;;;;;3.53;2.90;;;;;;;18.95;64.44;101883.34;5011019;28;20037;-65
2023/08/23 05:48:20;;;;;;;5.72;3.90;;;;;;;18.96;64.50;101885.03;5010736;28;20066;-64
2023/08/23 05:50:46;;;;;;;6.57;4.63;;;;;;;18.90;64.75;101881.38;5009795;28;20057;-65
2023/08/23 05:53:18;;;;;;;5.35;4.85;;;;;;;18.85;65.27;101887.84;4998712;28;20096;-65
2023/08/23 05:55:46;;;;;;;6.00;5.28;;;;;;;18.80;65.56;101887.03;5010494;28;20354;-65
2023/08/23 05:58:11;;;;;;;6.43;3.42;;;;;;;18.91;65.10;101885.06;5009855;28;20045;-65
2023/08/23 06:00:36;;;;;;;4.80;3.50;;;;;;;18.95;65.14;101888.97;5009805;28;20034;-64
2023/08/23 06:03:02;;;;;;;5.15;4.47;;;;;;;18.93;65.29;101892.06;5003460;28;20370;-64
2023/08/23 06:05:27;;;;;;;5.70;3.67;;;;;;;18.98;65.25;101891.19;5006039;28;20038;-65
2023/08/23 06:07:52;;;;;;;4.30;3.90;;;;;;;19.02;65.29;101889.50;5010598;28;20026;-65
2023/08/23 06:10:17;;;;;;;7.82;4.65;;;;;;;19.00;65.53;101892.63;4994887;28;20030;-65
2023/08/23 06:12:43;;;;;;;6.65;4.20;;;;;;;19.06;65.55;101894.31;5008008;28;20041;-65
2023/08/23 06:15:09;;;;;;;12.85;6.93;;;;;;;19.06;65.60;101897.13;4998480;28;20053;-65
2023/08/23 06:17:34;;;;;;;8.98;6.80;;;;;;;19.02;66.31;101889.50;4991620;28;20034;-65
2023/08/23 06:19:59;;;;;;;8.32;4.82;;;;;;;19.18;66.05;101894.00;4991414;28;20101;-64
2023/08/23 06:22:25;;;;;;;8.57;4.20;;;;;;;19.27;65.98;101897.88;4999555;28;20393;-65
2023/08/23 06:24:51;;;;;;;6.30;4.85;;;;;;;19.32;65.72;101903.50;5008246;28;20026;-65
2023/08/23 06:27:16;;;;;;;5.75;4.97;;;;;;;19.42;65.63;101893.34;5007661;28;20030;-63
2023/08/23 06:29:42;;;;;;;9.15;5.32;;;;;;;19.47;65.54;101899.78;5008798;28;20584;-63
2023/08/23 06:32:07;;;;;;;8.15;4.70;;;;;;;19.59;65.26;101905.09;5010273;28;20026;-63
2023/08/23 06:34:34;;;;;;;6.85;4.90;;;;;;;19.65;65.33;101898.34;5011227;28;20061;-63
2023/08/23 06:36:59;;;;;;;6.78;3.78;;;;;;;19.81;66.41;101891.50;5013247;28;20097;-64
2023/08/23 06:39:26;;;;;;;7.78;4.28;;;;;;;19.93;66.07;101895.94;5003991;28;20141;-65
2023/08/23 06:41:51;;;;;;;6.75;4.70;;;;;;;19.97;65.66;101902.69;5012380;28;20026;-65
2023/08/23 06:44:16;;;;;;;7.30;4.40;;;;;;;20.04;65.23;101900.34;5013262;28;20440;-63
2023/08/23 06:46:42;;;;;;;5.82;4.22;;;;;;;20.11;65.17;101896.09;5005517;28;20133;-63
2023/08/23 06:49:07;;;;;;;7.65;4.75;;;;;;;20.17;65.15;101898.88;5007533;28;20028;-63
2023/08/23 06:51:33;;;;;;;7.30;4.30;;;;;;;20.23;65.20;101894.88;5010112;28;20049;-63
2023/08/23 06:53:58;;;;;;;7.60;4.38;;;;;;;20.29;65.09;101900.19;5010084;28;20105;-65
2023/08/23 06:56:25;;;;;;;7.18;3.97;;;;;;;20.35;65.67;101901.81;5004438;28;20030;-65
2023/08/23 06:58:50;;;;;;;6.45;3.95;;;;;;;20.44;65.49;101910.53;5005945;28;20401;-65
2023/08/23 07:01:16;;;;;;;5.93;4.40;;;;;;;20.43;64.49;101911.63;4995280;28;20034;-64
2023/08/23 07:03:43;;;;;;;6.95;3.47;;;;;;;20.49;64.98;101920.94;5001994;28;20038;-63
2023/08/23 07:06:13;;;;;;;8.45;3.67;;;;;;;20.56;64.88;101921.47;5003338;28;20030;-63
2023/08/23 07:08:40;;;;;;;8.38;3.38;;;;;;;20.66;64.97;101915.72;5004007;28;20028;-65
2023/08/23 07:11:06;;;;;;;6.28;3.88;;;;;;;20.68;64.78;101919.09;5006111;28;20052;-65
2023/08/23 07:13:31;;;;;;;8.13;3.78;;;;;;;20.78;64.22;101924.63;5009472;28;20026;-64
2023/08/23 07:15:57;;;;;;;12.82;3.88;;;;;;;20.84;64.25;101917.81;5000316;28;20373;-64
2023/08/23 07:18:22;;;;;;;6.65;3.42;;;;;;;20.92;64.24;101932.44;5008048;28;20076;-62
2023/08/23 07:20:47;;;;;;;8.10;3.47;;;;;;;20.99;64.09;101930.09;5006461;28;20472;-63
2023/08/23 07:23:13;;;;;;;8.40;3.47;;;;;;;21.06;64.26;101934.25;5004993;28;20180;-63
2023/08/23 07:25:38;;;;;;;5.88;3.78;;;;;;;21.15;63.59;101936.44;5007791;28;20030;-63
2023/08/23 07:28:04;;;;;;;7.88;4.13;;;;;;;21.19;63.13;101934.69;5005801;28;20707;-63
2023/08/23 07:30:29;;;;;;;6.35;2.95;;;;;;;21.26;63.02;101926.69;5003907;28;20061;-64
2023/08/23 07:32:55;;;;;;;7.65;4.05;;;;;;;21.34;63.49;101945.88;5007937;28;20030;-63
2023/08/23 07:35:20;;;;;;;8.73;4.55;;;;;;;21.33;61.72;101939.34;5007888;28;20101;-64
2023/08/23 07:37:45;;;;;;;10.65;4.13;;;;;;;21.38;62.50;101941.28;5004724;28;20037;-63
2023/08/23 07:40:11;;;;;;;6.20;3.38;;;;;;;21.46;62.25;101937.81;5002423;28;20654;-63
2023/08/23 07:42:37;;;;;;;5.78;3.60;;;;;;;21.54;61.86;101945.63;5008211;28;20111;-65
2023/08/23 07:45:03;;;;;;;6.35;3.30;;;;;;;21.61;61.69;101942.41;5010140;28;20473;-66
2023/08/23 07:47:28;;;;;;;5.05;3.13;;;;;;;21.66;61.15;101945.19;5002945;28;20029;-65
2023/08/23 07:49:54;;;;;;;6.60;3.13;;;;;;;21.74;61.19;101946.50;5007113;28;20504;-65
2023/08/23 07:52:19;;;;;;;6.38;3.30;;;;;;;21.79;60.77;101952.94;5009744;28;20448;-65
2023/08/23 07:54:44;;;;;;;5.88;3.28;;;;;;;21.88;60.61;101949.41;5006940;28;20426;-64
2023/08/23 07:57:11;;;;;;;6.60;2.70;;;;;;;21.93;60.59;101944.56;5008843;28;20034;-65
2023/08/23 07:59:36;;;;;;;5.68;3.50;;;;;;;21.99;60.52;101946.16;5007827;28;20124;-65
2023/08/23 08:02:02;;;;;;;5.97;3.92;;;;;;;22.02;60.11;101945.56;5003260;28;20133;-64
2023/08/23 08:04:29;;;;;;;8.13;4.35;;;;;;;22.11;59.65;101954.19;5004042;28;20033;-65
2023/08/23 08:06:55;;;;;;;6.55;4.07;;;;;;;22.11;59.26;101942.03;4998474;28;20030;-65
2023/08/23 08:09:21;;;;;;;7.32;2.67;;;;;;;22.19;59.31;101947.88;5005672;28;20037;-65
2023/08/23 08:11:46;;;;;;;7.40;4.15;;;;;;;22.29;58.72;101946.91;5006832;28;20121;-65
2023/08/23 08:14:11;;;;;;;6.97;3.20;;;;;;;22.35;58.83;101944.81;5009142;28;20466;-65
2023/08/23 08:16:37;;;;;;;8.00;4.82;;;;;;;22.42;58.18;101943.28;5006500;28;20041;-66
2023/08/23 08:19:02;;;;;;;4.47;2.80;;;;;;;22.49;58.57;101943.75;5005687;28;20434;-65
2023/08/23 08:21:27;;;;;;;7.28;3.35;;;;;;;22.54;57.84;101942.81;5005273;28;20384;-63
2023/08/23 08:23:53;;;;;;;8.95;5.40;;;;;;;22.53;57.14;101946.81;5007420;28;20072;-65
2023/08/23 08:26:18;;;;;;;6.18;4.38;;;;;;;22.62;56.42;101944.94;5001997;28;20053;-65
2023/08/23 08:28:44;;;;;;;10.00;5.22;;;;;;;22.61;56.46;101950.94;5003212;28;20046;-65
2023/08/23 08:31:10;;;;;;;7.18;4.95;;;;;;;22.73;55.32;101957.78;5008667;28;20034;-65
2023/08/23 08:33:37;;;;;;;6.47;4.03;;;;;;;22.84;54.49;101947.13;5009893;28;20053;-65
2023/08/23 08:36:03;;;;;;;3.83;2.70;;;;;;;22.90;56.24;101940.22;5009163;28;20377;-64
2023/08/23 08:38:28;;;;;;;5.15;3.30;;;;;;;22.93;54.88;101938.81;5010380;28;20034;-65
2023/08/23 08:40:53;;;;;;;6.13;3.42;;;;;;;22.93;54.78;101938.81;5008694;28;20038;-65
2023/08/23 08:43:19;;;;;;;3.72;2.92;;;;;;;22.98;54.87;101933.03;5008843;28;20441;-68
2023/08/23 08:45:45;;;;;;;4.75;3.00;;;;;;;23.10;53.64;101933.38;4998895;28;20041;-65
2023/08/23 08:48:10;;;;;;;13.48;5.43;;;;;;;23.17;53.72;101935.81;5000377;28;20853;-68
2023/08/23 08:50:37;;;;;;;5.80;3.40;;;;;;;23.26;53.34;101931.97;5007655;28;20030;-65
2023/08/23 08:53:06;;;;;;;5.40;3.20;;;;;;;23.34;53.60;101938.84;4999326;28;20034;-65
2023/08/23 08:55:32;;;;;;;4.13;2.55;;;;;;;23.35;53.60;101934.06;5006661;28;20544;-65
2023/08/23 08:57:59;;;;;;;3.92;2.50;;;;;;;23.44;53.08;101943.50;5012021;28;20117;-65
2023/08/23 09:00:25;;;;;;;7.00;2.97;;;;;;;23.50;53.13;101936.56;5011511;28;20030;-65
2023/08/23 09:02:55;;;;;;;6.82;2.65;;;;;;;23.58;53.32;101933.03;4999374;28;20030;-65
2023/08/23 09:05:21;;;;;;;4.38;2.75;;;;;;;23.53;53.43;101941.59;4999606;28;20137;-65
2023/08/23 09:07:48;;;;;;;6.43;3.00;;;;;;;23.66;52.94;101939.97;5010842;28;20065;-65
2023/08/23 09:10:14;;;;;;;4.90;2.85;;;;;;;23.76;52.51;101937.75;5007243;28;20037;-65
2023/08/23 09:12:39;;;;;;;5.38;2.85;;;;;;;23.87;52.29;101929.03;5007830;28;20045;-65
2023/08/23 09:15:05;;;;;;;5.35;2.47;;;;;;;23.92;52.94;101926.91;5007151;28;20037;-65
2023/08/23 09:17:33;;;;;;;5.60;2.45;;;;;;;23.96;52.05;101930.78;5008170;28;20040;-65
2023/08/23 09:19:59;;;;;;;7.25;2.58;;;;;;;24.02;52.68;101933.53;5006413;28;20077;-65
2023/08/23 09:22:24;;;;;;;10.82;2.97;;;;;;;24.03;52.55;101941.69;5006911;28;20104;-65
2023/08/23 09:24:50;;;;;;;11.45;3.10;;;;;;;24.10;51.91;101929.94;5010223;28;20104;-65
2023/08/23 09:27:16;;;;;;;18.65;3.70;;;;;;;24.12;52.79;101931.28;5010157;28;20033;-65
2023/08/23 09:29:43;;;;;;;9.93;3.20;;;;;;;24.23;52.32;101935.56;5007699;28;20049;-65
2023/08/23 09:32:08;;;;;;;12.82;3.08;;;;;;;24.35;52.84;101937.00;5003871;28;20470;-66
2023/08/23 09:34:33;;;;;;;11.63;3.35;;;;;;;24.39;52.20;101941.72;5006975;28;20041;-66
2023/08/23 09:37:06;;;;;;;12.75;4.28;;;;;;;24.35;51.94;101943.50;5006835;28;20022;-65
2023/08/23 09:39:32;;;;;;;9.55;4.38;;;;;;;24.47;52.08;101938.13;4992867;28;20045;-65
2023/08/23 09:42:03;;;;;;;11.23;4.47;;;;;;;24.54;52.08;101939.69;5009574;28;20034;-66
2023/08/23 09:44:39;;;;;;;8.10;4.10;;;;;;;24.63;52.04;101940.59;5009696;28;20588;-65
2023/08/23 09:47:06;;;;;;;9.20;3.58;;;;;;;24.68;51.75;101935.63;5011634;28;20390;-65
2023/08/23 09:49:33;;;;;;;7.85;4.22;;;;;;;24.64;51.66;101925.22;5011626;28;20401;-66
2023/08/23 09:52:00;;;;;;;6.47;3.65;;;;;;;24.71;51.68;101928.47;5010832;28;20026;-66
2023/08/23 09:54:54;;;;;;;6.10;4.20;;;;;;;24.77;51.95;101937.69;5011740;28;20034;-66
2023/08/23 09:57:20;;;;;;;8.30;5.00;;;;;;;24.77;51.82;101929.19;5008161;28;20030;-65
2023/08/23 09:59:46;;;;;;;7.25;4.40;;;;;;;24.81;51.69;101939.56;5014155;28;20061;-65
2023/08/23 10:02:16;;;;;;;8.45;5.05;;;;;;;24.79;51.30;101929.69;5015364;28;20504;-65
2023/08/23 10:04:42;;;;;;;8.48;4.63;;;;;;;24.72;51.52;101931.00;5015342;28;20026;-65
2023/08/23 10:07:08;;;;;;;6.63;4.63;;;;;;;24.76;51.69;101936.88;5014780;28;20080;-65
2023/08/23 10:09:35;;;;;;;9.27;5.00;;;;;;;24.81;52.01;101935.88;5015164;28;20125;-65
2023/08/23 10:12:04;;;;;;;6.97;3.60;;;;;;;24.78;51.56;101939.38;5014335;28;20033;-66
2023/08/23 10:14:31;;;;;;;8.07;4.28;;;;;;;24.78;50.76;101928.00;5003495;28;20026;-65
2023/08/23 10:16:58;;;;;;;6.13;4.30;;;;;;;24.68;50.82;101934.78;4995570;28;20153;-65
2023/08/23 10:19:23;;;;;;;7.20;4.88;;;;;;;24.66;51.16;101931.44;4994882;28;20081;-65
2023/08/23 10:21:49;;;;;;;5.75;4.45;;;;;;;24.56;51.29;101926.00;4995572;28;20513;-66
2023/08/23 10:24:14;;;;;;;8.13;4.05;;;;;;;24.67;51.08;101933.94;4995739;28;20080;-66
2023/08/23 10:26:52;;;;;;;8.18;4.47;;;;;;;24.80;51.43;101931.34;4994932;28;20022;-66
2023/08/23 10:29:28;;;;;;;9.32;4.93;;;;;;;24.84;52.06;101926.72;4995252;28;20046;-66
2023/08/23 10:31:54;;;;;;;5.22;4.13;;;;;;;24.96;50.65;101930.66;5004861;28;20405;-66
2023/08/23 10:34:27;;;;;;;5.93;3.72;;;;;;;25.05;50.52;101927.00;5014411;28;20022;-66
2023/08/23 10:36:54;;;;;;;7.82;4.28;;;;;;;25.10;49.00;101932.56;5014760;28;20501;-66
2023/08/23 10:39:27;;;;;;;5.70;5.05;;;;;;;25.08;49.64;101929.22;5014753;28;20512;-66
2023/08/23 10:41:56;;;;;;;8.23;4.05;;;;;;;25.19;49.68;101930.59;5013799;28;20029;-66
2023/08/23 10:44:22;;;;;;;6.63;4.30;;;;;;;25.20;49.15;101918.94;5014697;28;20022;-65
2023/08/23 10:46:50;;;;;;;8.20;4.28;;;;;;;25.22;48.96;101913.75;5014549;28;20378;-66
2023/08/23 10:49:20;;;;;;;6.45;4.28;;;;;;;25.32;48.81;101920.34;5004243;28;20030;-66
2023/08/23 10:51:46;;;;;;;6.72;3.75;;;;;;;25.36;48.37;101921.34;5012836;28;20409;-65
2023/08/23 10:54:13;;;;;;;7.80;4.30;;;;;;;25.38;47.32;101913.31;5013760;28;20374;-65
2023/08/23 10:56:38;;;;;;;5.00;3.70;;;;;;;25.42;47.98;101912.31;5014431;28;20026;-66
2023/08/23 10:59:06;;;;;;;5.63;2.80;;;;;;;25.46;45.44;101907.66;5014160;28;20041;-66
2023/08/23 11:01:32;;;;;;;7.22;3.42;;;;;;;25.53;45.75;101910.03;5013352;28;20013;-66
2023/08/23 11:03:59;;;;;;;5.88;3.67;;;;;;;25.58;46.00;101903.34;5010134;28;20486;-66
2023/08/23 11:06:24;;;;;;;7.65;4.00;;;;;;;25.61;46.93;101897.84;5014166;28;20083;-66
2023/08/23 11:08:51;;;;;;;7.63;3.95;;;;;;;25.58;47.32;101889.13;5013227;28;20112;-66
2023/08/23 11:11:16;;;;;;;10.45;4.70;;;;;;;25.57;46.87;101894.00;5014156;28;20022;-66
2023/08/23 11:13:41;;;;;;;6.10;3.40;;;;;;;25.62;46.18;101882.50;5014236;28;20529;-66
2023/08/23 11:16:07;;;;;;;6.30;3.20;;;;;;;25.64;46.33;101885.81;5010265;28;20030;-66
2023/08/23 11:18:32;;;;;;;7.43;3.92;;;;;;;25.60;46.63;101887.66;5014114;28;20048;-66
2023/08/23 11:20:58;;;;;;;5.47;4.00;;;;;;;25.62;46.63;101885.34;5014098;28;20030;-66